Time;durP1;ratioP1;P1;durP2;ratioP2;P2;SDS_P1;SDS_P2;PMS_P1;PMS_P2;Temp;Humidity;BMP_temperature;BMP_pressure;BME280_temperature;BME280_humidity;BME280_pressure;Samples;Min_cycle;Max_cycle;Signal;HPM_P1;HPM_P2
2022/08/28 00:01:24;;;;;;;;;4.67;4.67;;;;;;;;4983640;27;45252;-74
2022/08/28 00:03:50;;;;;;;;;4.67;4.67;;;;;;;;4989929;27;45323;-74
2022/08/28 00:06:15;;;;;;;;;5.00;5.00;;;;;;;;4983782;28;45291;-74
2022/08/28 00:08:40;;;;;;;;;6.33;4.67;;;;;;;;4992197;27;45891;-74
2022/08/28 00:11:05;;;;;;;;;5.33;4.67;;;;;;;;4988572;28;45315;-74
2022/08/28 00:13:31;;;;;;;;;5.67;5.33;;;;;;;;4992492;27;45245;-73
2022/08/28 00:15:59;;;;;;;;;8.00;6.00;;;;;;;;4985061;28;45480;-74
2022/08/28 00:18:25;;;;;;;;;5.67;5.67;;;;;;;;4978220;27;45376;-74
2022/08/28 00:20:50;;;;;;;;;7.33;6.00;;;;;;;;4979725;28;45354;-74
2022/08/28 00:23:16;;;;;;;;;6.67;6.67;;;;;;;;4982509;28;45750;-74
2022/08/28 00:25:41;;;;;;;;;9.00;6.33;;;;;;;;4981002;27;45373;-74
2022/08/28 00:28:07;;;;;;;;;7.00;7.00;;;;;;;;4983005;27;46643;-73
2022/08/28 00:30:38;;;;;;;;;7.67;7.00;;;;;;;;4990359;27;45410;-74
2022/08/28 00:33:05;;;;;;;;;6.67;5.00;;;;;;;;4986853;27;45463;-73
2022/08/28 00:35:30;;;;;;;;;5.67;5.67;;;;;;;;5001745;27;45812;-73
2022/08/28 00:37:56;;;;;;;;;7.00;7.00;;;;;;;;4994729;27;46658;-74
2022/08/28 00:40:22;;;;;;;;;9.00;6.00;;;;;;;;4982728;27;45329;-74
2022/08/28 00:42:48;;;;;;;;;5.67;5.67;;;;;;;;4985925;28;45363;-73
2022/08/28 00:45:14;;;;;;;;;7.00;7.00;;;;;;;;4987307;27;45891;-74
2022/08/28 00:47:39;;;;;;;;;10.33;7.33;;;;;;;;4988556;27;46468;-73
2022/08/28 00:50:06;;;;;;;;;7.00;6.33;;;;;;;;4988965;27;45304;-74
2022/08/28 00:52:31;;;;;;;;;6.00;5.00;;;;;;;;4989688;27;45231;-73
2022/08/28 00:55:00;;;;;;;;;4.33;4.33;;;;;;;;4991855;28;45222;-73
2022/08/28 00:57:30;;;;;;;;;6.67;5.67;;;;;;;;4983778;27;46392;-73
2022/08/28 00:59:55;;;;;;;;;6.67;5.67;;;;;;;;4978777;28;45431;-74
2022/08/28 01:02:20;;;;;;;;;8.00;5.67;;;;;;;;4982579;28;45395;-73
2022/08/28 01:04:46;;;;;;;;;5.33;5.33;;;;;;;;4990315;28;45347;-73
2022/08/28 01:07:13;;;;;;;;;4.33;4.33;;;;;;;;4990233;27;45363;-73
2022/08/28 01:09:41;;;;;;;;;7.00;5.33;;;;;;;;4989419;28;45380;-73
2022/08/28 01:12:10;;;;;;;;;6.00;3.33;;;;;;;;4987523;28;45378;-73
2022/08/28 01:14:37;;;;;;;;;6.00;6.00;;;;;;;;4990861;28;45391;-73
2022/08/28 01:17:03;;;;;;;;;5.00;5.00;;;;;;;;4978864;27;45401;-73
2022/08/28 01:19:33;;;;;;;;;5.67;4.67;;;;;;;;4982775;27;45560;-73
2022/08/28 01:22:17;;;;;;;;;8.00;5.00;;;;;;;;4983057;28;45811;-73
2022/08/28 01:24:44;;;;;;;;;3.67;3.67;;;;;;;;4984565;28;45330;-73
2022/08/28 01:27:09;;;;;;;;;5.67;5.67;;;;;;;;4983674;28;45438;-73
2022/08/28 01:29:35;;;;;;;;;5.00;5.00;;;;;;;;4986685;28;45477;-73
2022/08/28 01:32:00;;;;;;;;;4.33;3.33;;;;;;;;4984253;27;45213;-73
2022/08/28 01:34:25;;;;;;;;;6.00;6.00;;;;;;;;5005385;27;45162;-73
2022/08/28 01:36:51;;;;;;;;;6.00;6.00;;;;;;;;4990168;28;45553;-73
2022/08/28 01:39:18;;;;;;;;;6.00;6.00;;;;;;;;4991377;28;45457;-73
2022/08/28 01:41:45;;;;;;;;;10.67;9.67;;;;;;;;4983402;28;45449;-73
2022/08/28 01:44:11;;;;;;;;;9.00;9.00;;;;;;;;4981950;27;46631;-73
2022/08/28 01:46:39;;;;;;;;;11.00;9.33;;;;;;;;4984389;27;47405;-74
2022/08/28 01:49:04;;;;;;;;;8.00;8.00;;;;;;;;4986431;27;44708;-74
2022/08/28 01:51:30;;;;;;;;;7.67;6.67;;;;;;;;4985848;27;45365;-73
2022/08/28 01:53:55;;;;;;;;;8.67;8.33;;;;;;;;4988152;27;45551;-73
2022/08/28 01:56:20;;;;;;;;;12.67;9.00;;;;;;;;4986285;28;45332;-74
2022/08/28 01:58:47;;;;;;;;;10.00;8.00;;;;;;;;4989659;27;45196;-73
2022/08/28 02:01:13;;;;;;;;;7.00;5.67;;;;;;;;4988328;27;45337;-74
2022/08/28 02:03:39;;;;;;;;;11.00;8.00;;;;;;;;4996435;27;45408;-73
2022/08/28 02:06:04;;;;;;;;;9.00;8.00;;;;;;;;4987552;27;45455;-73
2022/08/28 02:08:30;;;;;;;;;8.67;7.33;;;;;;;;4981467;27;45343;-74
2022/08/28 02:10:55;;;;;;;;;7.00;6.67;;;;;;;;4981774;27;45366;-73
2022/08/28 02:13:21;;;;;;;;;6.00;5.33;;;;;;;;4983176;27;45351;-73
2022/08/28 02:15:46;;;;;;;;;7.00;7.00;;;;;;;;4988060;28;46225;-73
2022/08/28 02:18:13;;;;;;;;;8.33;6.33;;;;;;;;4983285;27;45399;-73
2022/08/28 02:20:38;;;;;;;;;5.33;5.33;;;;;;;;4990974;27;45299;-73
2022/08/28 02:23:04;;;;;;;;;6.67;6.67;;;;;;;;4985825;27;45393;-73
2022/08/28 02:25:30;;;;;;;;;6.67;5.67;;;;;;;;4978620;28;45564;-73
2022/08/28 02:27:55;;;;;;;;;5.00;5.00;;;;;;;;5012577;27;45483;-73
2022/08/28 02:30:20;;;;;;;;;9.33;4.67;;;;;;;;4980300;27;45448;-73
2022/08/28 02:32:46;;;;;;;;;6.67;5.00;;;;;;;;4984942;28;45648;-73
2022/08/28 02:35:12;;;;;;;;;8.33;5.67;;;;;;;;5014999;27;45272;-73
2022/08/28 02:37:38;;;;;;;;;6.67;4.33;;;;;;;;4987649;27;45369;-73
2022/08/28 02:40:04;;;;;;;;;4.67;4.67;;;;;;;;4987805;28;45484;-73
2022/08/28 02:42:29;;;;;;;;;7.67;4.67;;;;;;;;4991185;27;45479;-73
2022/08/28 02:44:54;;;;;;;;;5.33;5.33;;;;;;;;4995528;27;46005;-73
2022/08/28 02:47:20;;;;;;;;;5.00;5.00;;;;;;;;4988161;27;45377;-73
2022/08/28 02:49:45;;;;;;;;;6.00;6.00;;;;;;;;4996284;27;45282;-73
2022/08/28 02:52:11;;;;;;;;;4.67;4.67;;;;;;;;4995189;27;46817;-73
2022/08/28 02:54:39;;;;;;;;;4.67;3.67;;;;;;;;4990992;27;45477;-73
2022/08/28 02:57:06;;;;;;;;;5.33;5.33;;;;;;;;4980558;27;45174;-73
2022/08/28 02:59:32;;;;;;;;;19.33;16.00;;;;;;;;4996099;27;45218;-74
2022/08/28 03:01:57;;;;;;;;;20.33;18.00;;;;;;;;4984265;28;45380;-73
2022/08/28 03:04:22;;;;;;;;;26.33;22.67;;;;;;;;4996573;27;45437;-73
2022/08/28 03:06:49;;;;;;;;;33.33;29.00;;;;;;;;4992423;28;45625;-73
2022/08/28 03:09:14;;;;;;;;;36.33;30.00;;;;;;;;4987287;28;46486;-73
2022/08/28 03:11:40;;;;;;;;;30.67;25.00;;;;;;;;4980809;28;45274;-73
2022/08/28 03:14:05;;;;;;;;;26.67;24.00;;;;;;;;4981173;28;45342;-73
2022/08/28 03:16:33;;;;;;;;;19.00;19.00;;;;;;;;4982537;27;45458;-73
2022/08/28 03:18:58;;;;;;;;;28.67;21.67;;;;;;;;4983441;27;45304;-73
2022/08/28 03:21:23;;;;;;;;;15.67;14.00;;;;;;;;4980131;28;45477;-73
2022/08/28 03:23:49;;;;;;;;;10.67;10.00;;;;;;;;4985781;27;46517;-73
2022/08/28 03:26:16;;;;;;;;;14.67;13.67;;;;;;;;4984013;27;45462;-73
2022/08/28 03:28:43;;;;;;;;;15.00;12.00;;;;;;;;4988255;27;45295;-73
2022/08/28 03:31:10;;;;;;;;;8.33;8.33;;;;;;;;4983558;28;45275;-73
2022/08/28 03:33:36;;;;;;;;;9.67;9.33;;;;;;;;4994208;27;47162;-73
2022/08/28 03:36:01;;;;;;;;;9.00;8.00;;;;;;;;4999076;27;45341;-73
2022/08/28 03:38:26;;;;;;;;;8.67;8.67;;;;;;;;4995599;28;45270;-73
2022/08/28 03:40:52;;;;;;;;;7.67;7.67;;;;;;;;4987869;27;45532;-73
2022/08/28 03:43:18;;;;;;;;;7.33;6.00;;;;;;;;4979049;28;46040;-73
2022/08/28 03:45:53;;;;;;;;;7.67;6.00;;;;;;;;4984120;28;45517;-73
2022/08/28 03:48:19;;;;;;;;;6.00;4.33;;;;;;;;4986607;28;45275;-73
2022/08/28 03:50:44;;;;;;;;;6.00;6.00;;;;;;;;4982118;27;47046;-73
2022/08/28 03:53:09;;;;;;;;;6.00;5.00;;;;;;;;4983695;27;45635;-73
2022/08/28 03:55:35;;;;;;;;;6.33;4.67;;;;;;;;4986607;27;45544;-73
2022/08/28 03:58:00;;;;;;;;;5.00;5.00;;;;;;;;4984326;28;45167;-73
2022/08/28 04:00:26;;;;;;;;;7.00;7.00;;;;;;;;4986319;27;45239;-73
2022/08/28 04:02:51;;;;;;;;;6.67;5.67;;;;;;;;4986711;27;46101;-73
2022/08/28 04:05:17;;;;;;;;;7.67;7.67;;;;;;;;4988609;28;45256;-73
2022/08/28 04:07:42;;;;;;;;;5.33;5.33;;;;;;;;4987116;27;45381;-73
2022/08/28 04:10:07;;;;;;;;;7.67;7.00;;;;;;;;4989031;27;45789;-73
2022/08/28 04:12:32;;;;;;;;;7.00;7.00;;;;;;;;4977513;27;45425;-73
2022/08/28 04:14:58;;;;;;;;;8.00;6.67;;;;;;;;4978752;28;45491;-73
2022/08/28 04:17:24;;;;;;;;;7.33;7.00;;;;;;;;4978873;27;45429;-73
2022/08/28 04:19:52;;;;;;;;;6.00;6.00;;;;;;;;4979662;27;45340;-73
2022/08/28 04:22:17;;;;;;;;;26.00;22.00;;;;;;;;4979392;28;46254;-73
2022/08/28 04:24:43;;;;;;;;;29.67;24.00;;;;;;;;4980002;28;45416;-73
2022/08/28 04:27:08;;;;;;;;;18.33;15.33;;;;;;;;4982075;27;45371;-72
2022/08/28 04:29:33;;;;;;;;;11.67;11.67;;;;;;;;4984342;27;45399;-72
2022/08/28 04:31:58;;;;;;;;;17.67;14.67;;;;;;;;4983941;28;45470;-72
2022/08/28 04:34:23;;;;;;;;;15.33;13.00;;;;;;;;5013597;27;45916;-72
2022/08/28 04:36:49;;;;;;;;;12.67;11.00;;;;;;;;4988482;28;45321;-73
2022/08/28 04:39:15;;;;;;;;;12.00;10.67;;;;;;;;4988729;27;45281;-73
2022/08/28 04:41:40;;;;;;;;;10.67;10.00;;;;;;;;4986927;27;46119;-73
2022/08/28 04:44:06;;;;;;;;;9.00;6.00;;;;;;;;4991987;28;45275;-73
2022/08/28 04:46:31;;;;;;;;;12.00;9.00;;;;;;;;4992910;27;45220;-73
2022/08/28 04:48:57;;;;;;;;;8.67;7.33;;;;;;;;4978693;28;45494;-73
2022/08/28 04:51:22;;;;;;;;;7.67;7.00;;;;;;;;4982943;28;45309;-73
2022/08/28 04:53:47;;;;;;;;;9.33;8.67;;;;;;;;4989890;27;45514;-76
2022/08/28 04:56:13;;;;;;;;;7.33;6.67;;;;;;;;4988330;27;45324;-75
2022/08/28 04:58:39;;;;;;;;;7.67;6.33;;;;;;;;4986790;28;45442;-75
2022/08/28 05:01:06;;;;;;;;;6.33;5.67;;;;;;;;4981768;28;45419;-75
2022/08/28 05:03:31;;;;;;;;;7.33;7.00;;;;;;;;4991022;27;45436;-76
2022/08/28 05:05:57;;;;;;;;;6.00;5.00;;;;;;;;4987898;27;45652;-75
2022/08/28 05:08:25;;;;;;;;;7.00;7.00;;;;;;;;4992493;27;45386;-75
2022/08/28 05:10:52;;;;;;;;;7.00;7.00;;;;;;;;4986249;28;45439;-75
2022/08/28 05:13:18;;;;;;;;;5.00;5.00;;;;;;;;4983547;27;45422;-75
2022/08/28 05:15:44;;;;;;;;;4.67;3.33;;;;;;;;4984745;27;45537;-75
2022/08/28 05:18:10;;;;;;;;;7.00;7.00;;;;;;;;4980711;28;45406;-75
2022/08/28 05:20:43;;;;;;;;;6.00;6.00;;;;;;;;4984871;28;45453;-75
2022/08/28 05:23:09;;;;;;;;;7.00;7.00;;;;;;;;4985429;27;45426;-74
2022/08/28 05:25:35;;;;;;;;;6.00;5.67;;;;;;;;4990124;28;45468;-75
2022/08/28 05:28:01;;;;;;;;;8.00;7.00;;;;;;;;4980458;28;45366;-75
2022/08/28 05:30:26;;;;;;;;;4.67;4.67;;;;;;;;4981823;28;45488;-76
2022/08/28 05:32:52;;;;;;;;;8.33;7.00;;;;;;;;4986631;28;45382;-76
2022/08/28 05:35:17;;;;;;;;;10.67;8.00;;;;;;;;5011102;27;45354;-74
2022/08/28 05:37:42;;;;;;;;;6.00;6.00;;;;;;;;4983278;28;45319;-75
2022/08/28 05:40:09;;;;;;;;;8.67;8.67;;;;;;;;4988936;27;46014;-75
2022/08/28 05:42:34;;;;;;;;;8.00;8.00;;;;;;;;4984928;28;45236;-75
2022/08/28 05:45:00;;;;;;;;;7.00;5.00;;;;;;;;4984139;28;46103;-75
2022/08/28 05:47:25;;;;;;;;;6.00;6.00;;;;;;;;4988589;28;45537;-75
2022/08/28 05:49:50;;;;;;;;;8.67;6.67;;;;;;;;4989224;28;46299;-75
2022/08/28 05:52:15;;;;;;;;;6.67;6.67;;;;;;;;4983098;28;45273;-75
2022/08/28 05:54:42;;;;;;;;;9.00;7.00;;;;;;;;4991388;27;45168;-75
2022/08/28 05:57:07;;;;;;;;;6.33;6.33;;;;;;;;4983655;28;46135;-75
2022/08/28 05:59:32;;;;;;;;;10.00;8.33;;;;;;;;4993837;28;45196;-75
2022/08/28 06:01:58;;;;;;;;;7.67;7.67;;;;;;;;4993092;27;45293;-75
2022/08/28 06:04:25;;;;;;;;;10.33;6.67;;;;;;;;4995113;28;45214;-75
2022/08/28 06:06:51;;;;;;;;;10.33;8.00;;;;;;;;4985773;28;46484;-74
2022/08/28 06:09:19;;;;;;;;;8.00;6.33;;;;;;;;4995143;28;46131;-74
2022/08/28 06:11:45;;;;;;;;;7.00;7.00;;;;;;;;4983948;28;45224;-74
2022/08/28 06:14:12;;;;;;;;;9.00;6.33;;;;;;;;4992667;27;45334;-75
2022/08/28 06:16:38;;;;;;;;;6.00;6.00;;;;;;;;4985945;28;45328;-75
2022/08/28 06:19:04;;;;;;;;;7.00;7.00;;;;;;;;4990901;28;48489;-76
2022/08/28 06:21:29;;;;;;;;;8.00;7.00;;;;;;;;4983390;28;45402;-76
2022/08/28 06:23:55;;;;;;;;;6.00;5.00;;;;;;;;4990791;28;45354;-75
2022/08/28 06:26:20;;;;;;;;;8.33;6.67;;;;;;;;4984002;28;45290;-76
2022/08/28 06:28:46;;;;;;;;;7.33;7.33;;;;;;;;4994054;27;48176;-75
2022/08/28 06:31:11;;;;;;;;;7.00;6.33;;;;;;;;4988899;27;45428;-75
2022/08/28 06:33:36;;;;;;;;;7.00;7.00;;;;;;;;4997972;27;45544;-76
2022/08/28 06:36:03;;;;;;;;;5.00;5.00;;;;;;;;5012153;27;45422;-76
2022/08/28 06:38:29;;;;;;;;;7.00;6.33;;;;;;;;4982408;27;45291;-76
2022/08/28 06:40:55;;;;;;;;;9.00;6.33;;;;;;;;4987949;27;45521;-76
2022/08/28 06:43:21;;;;;;;;;5.33;5.33;;;;;;;;4993828;28;45297;-75
2022/08/28 06:45:47;;;;;;;;;9.33;6.67;;;;;;;;4987511;27;45422;-73
2022/08/28 06:48:18;;;;;;;;;7.00;7.00;;;;;;;;4993885;28;45368;-74
2022/08/28 06:50:45;;;;;;;;;5.67;5.00;;;;;;;;4989970;27;45413;-74
2022/08/28 06:53:11;;;;;;;;;8.00;6.00;;;;;;;;4988584;27;45274;-75
2022/08/28 06:55:37;;;;;;;;;6.00;6.00;;;;;;;;4984062;27;45410;-74
2022/08/28 06:58:03;;;;;;;;;6.33;4.33;;;;;;;;4979771;28;45348;-75
2022/08/28 07:00:29;;;;;;;;;7.00;5.67;;;;;;;;4984796;27;45154;-74
2022/08/28 07:02:54;;;;;;;;;6.00;6.00;;;;;;;;4981943;27;45204;-75
2022/08/28 07:05:20;;;;;;;;;8.00;6.67;;;;;;;;4984773;27;45817;-75
2022/08/28 07:07:45;;;;;;;;;7.00;5.33;;;;;;;;4991201;27;45961;-75
2022/08/28 07:10:10;;;;;;;;;7.00;6.00;;;;;;;;4988631;27;45327;-75
2022/08/28 07:12:35;;;;;;;;;6.00;6.00;;;;;;;;4986087;27;45268;-75
2022/08/28 07:15:03;;;;;;;;;8.00;6.67;;;;;;;;4987737;28;45373;-76
2022/08/28 07:17:28;;;;;;;;;9.33;6.67;;;;;;;;4978722;28;45514;-75
2022/08/28 07:19:54;;;;;;;;;7.33;4.67;;;;;;;;4988813;27;45327;-75
2022/08/28 07:22:19;;;;;;;;;4.00;4.00;;;;;;;;4995885;27;45444;-76
2022/08/28 07:24:44;;;;;;;;;8.33;5.00;;;;;;;;4991404;28;45215;-75
2022/08/28 07:27:09;;;;;;;;;7.67;7.33;;;;;;;;4987492;27;47237;-75
2022/08/28 07:29:34;;;;;;;;;7.33;5.33;;;;;;;;4980057;27;46132;-75
2022/08/28 07:32:02;;;;;;;;;8.00;5.00;;;;;;;;4982532;27;45523;-75
2022/08/28 07:34:27;;;;;;;;;10.00;7.00;;;;;;;;5015269;27;45416;-76
2022/08/28 07:36:52;;;;;;;;;6.67;6.67;;;;;;;;4986386;27;45598;-72
2022/08/28 07:39:18;;;;;;;;;8.33;6.33;;;;;;;;4987423;28;45395;-72
2022/08/28 07:41:44;;;;;;;;;7.33;6.67;;;;;;;;4993914;27;45378;-72
2022/08/28 07:46:57;;;;;;;;;6.33;6.00;;;;;;;;4984894;28;45806;-73
2022/08/28 07:49:22;;;;;;;;;6.33;5.00;;;;;;;;4983967;28;45516;-73
2022/08/28 07:51:49;;;;;;;;;9.33;8.33;;;;;;;;4980412;28;45393;-73
2022/08/28 07:54:16;;;;;;;;;5.00;5.00;;;;;;;;4986833;27;45476;-73
2022/08/28 07:56:41;;;;;;;;;7.67;6.67;;;;;;;;4986165;28;45360;-73
2022/08/28 07:59:08;;;;;;;;;9.67;8.00;;;;;;;;4992659;27;45241;-73
2022/08/28 08:01:38;;;;;;;;;8.50;7.00;;;;;;;;4994416;27;45421;-73
2022/08/28 08:04:06;;;;;;;;;6.00;6.00;;;;;;;;4991394;28;45352;-73
2022/08/28 08:06:31;;;;;;;;;7.00;5.33;;;;;;;;4985323;28;46041;-73
2022/08/28 08:08:56;;;;;;;;;8.00;6.33;;;;;;;;4996354;27;45230;-73
2022/08/28 08:11:21;;;;;;;;;8.67;6.33;;;;;;;;4982657;28;45193;-73
2022/08/28 08:13:47;;;;;;;;;8.00;6.67;;;;;;;;4992208;28;45459;-73
2022/08/28 08:16:17;;;;;;;;;6.00;4.67;;;;;;;;4984098;27;45486;-72
2022/08/28 08:18:43;;;;;;;;;6.67;6.67;;;;;;;;4989685;27;45831;-72
2022/08/28 08:21:10;;;;;;;;;8.00;6.67;;;;;;;;4984368;27;45434;-74
2022/08/28 08:23:37;;;;;;;;;9.67;6.67;;;;;;;;4986558;28;45463;-72
2022/08/28 08:26:04;;;;;;;;;7.33;6.33;;;;;;;;4985405;28;45602;-71
2022/08/28 08:28:29;;;;;;;;;6.67;5.00;;;;;;;;4987693;28;45446;-71
2022/08/28 08:31:03;;;;;;;;;7.00;7.00;;;;;;;;4989560;28;45439;-71
2022/08/28 08:33:29;;;;;;;;;5.67;5.67;;;;;;;;4991717;27;45466;-70
2022/08/28 08:35:54;;;;;;;;;9.00;7.00;;;;;;;;5013259;27;46609;-71
2022/08/28 08:38:20;;;;;;;;;7.00;5.33;;;;;;;;4996375;27;45414;-71
2022/08/28 08:40:45;;;;;;;;;7.00;7.00;;;;;;;;4989161;27;45471;-71
2022/08/28 08:43:12;;;;;;;;;7.00;7.00;;;;;;;;4991173;28;45473;-71
2022/08/28 08:45:39;;;;;;;;;5.00;5.00;;;;;;;;4984253;27;47292;-71
2022/08/28 08:48:04;;;;;;;;;8.67;6.00;;;;;;;;4978135;27;45441;-72
2022/08/28 08:50:31;;;;;;;;;6.33;5.00;;;;;;;;4989273;28;45343;-71
2022/08/28 08:53:17;;;;;;;;;8.00;7.00;;;;;;;;4983897;28;45274;-71
2022/08/28 08:55:53;;;;;;;;;8.33;6.00;;;;;;;;4989360;28;46297;-72
2022/08/28 08:58:28;;;;;;;;;9.50;6.00;;;;;;;;4977683;27;45219;-72
2022/08/28 09:01:00;;;;;;;;;9.50;6.75;;;;;;;;4980559;27;45396;-72
2022/08/28 09:03:45;;;;;;;;;5.75;5.75;;;;;;;;4980125;28;45752;-72
2022/08/28 09:06:18;;;;;;;;;7.50;6.50;;;;;;;;4980207;27;45701;-72
2022/08/28 09:08:51;;;;;;;;;8.00;8.00;;;;;;;;4981618;28;45338;-72
2022/08/28 09:11:29;;;;;;;;;7.25;6.50;;;;;;;;4987721;28;45367;-72
2022/08/28 09:14:02;;;;;;;;;7.00;7.00;;;;;;;;4988594;27;45296;-72
2022/08/28 09:16:30;;;;;;;;;11.00;6.25;;;;;;;;4984914;28;45461;-72
2022/08/28 09:18:56;;;;;;;;;7.50;7.00;;;;;;;;4985607;28;45348;-72
2022/08/28 09:21:24;;;;;;;;;7.00;6.00;;;;;;;;4988800;27;45470;-73
2022/08/28 09:23:51;;;;;;;;;8.00;8.00;;;;;;;;4979151;28;45170;-73
2022/08/28 09:26:20;;;;;;;;;7.50;7.50;;;;;;;;4983587;28;45371;-73
2022/08/28 09:28:57;;;;;;;;;10.50;8.00;;;;;;;;4978942;28;45304;-73
2022/08/28 09:31:51;;;;;;;;;9.50;8.00;;;;;;;;4984331;28;45204;-73
2022/08/28 09:34:31;;;;;;;;;9.25;7.75;;;;;;;;5006060;27;45276;-73
2022/08/28 09:36:58;;;;;;;;;9.25;9.00;;;;;;;;4985233;28;48473;-73
2022/08/28 09:39:26;;;;;;;;;8.25;6.50;;;;;;;;4990666;28;45335;-73
2022/08/28 09:44:53;;;;;;;;;10.75;8.25;;;;;;;;4994442;28;45166;-73
2022/08/28 09:47:37;;;;;;;;;9.50;8.25;;;;;;;;4994226;28;47004;-73
2022/08/28 09:50:20;;;;;;;;;7.00;6.50;;;;;;;;4991932;28;45396;-73
2022/08/28 09:52:46;;;;;;;;;7.75;7.75;;;;;;;;4992460;28;45423;-72
2022/08/28 09:55:16;;;;;;;;;9.00;8.00;;;;;;;;4992608;28;45645;-73
2022/08/28 09:57:44;;;;;;;;;8.75;8.00;;;;;;;;4992393;28;46341;-73
2022/08/28 10:00:09;;;;;;;;;7.80;7.80;;;;;;;;4990162;28;45351;-73
2022/08/28 10:02:43;;;;;;;;;8.00;8.00;;;;;;;;4992089;27;45445;-73
2022/08/28 10:05:11;;;;;;;;;10.50;9.50;;;;;;;;4989777;28;45406;-72
2022/08/28 10:07:44;;;;;;;;;6.50;6.50;;;;;;;;4985691;28;45376;-73
2022/08/28 10:10:12;;;;;;;;;6.40;6.40;;;;;;;;4991372;27;45348;-73
2022/08/28 10:12:38;;;;;;;;;8.00;6.25;;;;;;;;4993452;27;45504;-72
2022/08/28 10:15:03;;;;;;;;;8.75;6.50;;;;;;;;4991093;28;45314;-73
2022/08/28 10:17:31;;;;;;;;;7.75;6.75;;;;;;;;4983525;27;45540;-72
2022/08/28 10:20:08;;;;;;;;;10.00;9.00;;;;;;;;4989232;27;45925;-73
2022/08/28 10:22:40;;;;;;;;;10.00;10.00;;;;;;;;4983308;27;45426;-73
2022/08/28 10:25:21;;;;;;;;;8.00;7.40;;;;;;;;4991559;28;45232;-73
2022/08/28 10:27:55;;;;;;;;;8.00;8.00;;;;;;;;4989418;27;47699;-73
2022/08/28 10:30:22;;;;;;;;;10.00;7.60;;;;;;;;5000071;27;45357;-73
2022/08/28 10:33:06;;;;;;;;;9.00;9.00;;;;;;;;4987205;27;45382;-73
2022/08/28 10:35:51;;;;;;;;;9.50;7.50;;;;;;;;5009554;27;47161;-73
2022/08/28 10:38:18;;;;;;;;;8.00;7.40;;;;;;;;4981620;27;45353;-73
2022/08/28 10:40:53;;;;;;;;;6.60;6.20;;;;;;;;4985490;28;45441;-72
2022/08/28 10:43:18;;;;;;;;;8.80;8.80;;;;;;;;4994032;28;45353;-73
2022/08/28 10:45:43;;;;;;;;;9.75;8.00;;;;;;;;4991620;27;45275;-73
2022/08/28 10:48:18;;;;;;;;;7.25;7.25;;;;;;;;4992641;27;45515;-72
2022/08/28 10:50:51;;;;;;;;;6.00;6.00;;;;;;;;4992631;28;45487;-72
2022/08/28 10:53:18;;;;;;;;;9.60;9.20;;;;;;;;4993849;27;45365;-72
2022/08/28 10:55:46;;;;;;;;;8.40;8.40;;;;;;;;4991708;28;45332;-71
2022/08/28 10:58:14;;;;;;;;;8.60;7.60;;;;;;;;4993561;28;47411;-71
2022/08/28 11:00:42;;;;;;;;;11.20;9.60;;;;;;;;4992555;27;45348;-72
2022/08/28 11:03:12;;;;;;;;;9.40;8.00;;;;;;;;4994505;28;45442;-71
2022/08/28 11:05:47;;;;;;;;;12.00;7.60;;;;;;;;4996049;27;45906;-72
2022/08/28 11:08:22;;;;;;;;;11.40;10.60;;;;;;;;4996822;27;45314;-72
2022/08/28 11:10:53;;;;;;;;;10.00;8.80;;;;;;;;4991015;28;45360;-72
2022/08/28 11:13:38;;;;;;;;;8.40;8.40;;;;;;;;4993020;28;45349;-71
2022/08/28 11:16:11;;;;;;;;;8.40;7.20;;;;;;;;4992204;27;45932;-71
2022/08/28 11:18:42;;;;;;;;;6.80;6.20;;;;;;;;4995320;28;45467;-72
2022/08/28 11:21:07;;;;;;;;;9.00;8.20;;;;;;;;4989306;27;45287;-72
2022/08/28 11:23:48;;;;;;;;;8.50;7.25;;;;;;;;4995250;28;45204;-72
2022/08/28 11:26:22;;;;;;;;;52.67;42.33;;;;;;;;4994718;28;45982;-71
2022/08/28 11:28:47;;;;;;;;;13.00;11.80;;;;;;;;4995152;28;46162;-72
2022/08/28 11:31:12;;;;;;;;;21.25;20.75;;;;;;;;4988977;28;45455;-72
2022/08/28 11:33:37;;;;;;;;;45.00;36.00;;;;;;;;4998974;27;45332;-72
2022/08/28 11:36:23;;;;;;;;;16.25;13.75;;;;;;;;5002824;27;45477;-73
2022/08/28 11:38:51;;;;;;;;;9.00;9.00;;;;;;;;4994695;27;46069;-73
2022/08/28 11:41:19;;;;;;;;;10.40;9.80;;;;;;;;4992046;27;45220;-73
2022/08/28 11:43:45;;;;;;;;;8.00;7.00;;;;;;;;4995255;28;45235;-73
2022/08/28 11:46:10;;;;;;;;;7.25;7.25;;;;;;;;4990005;27;45562;-73
2022/08/28 11:48:36;;;;;;;;;3.75;3.75;;;;;;;;4994978;28;46104;-73
2022/08/28 11:51:21;;;;;;;;;9.50;9.00;;;;;;;;4990120;27;45310;-73
2022/08/28 11:54:05;;;;;;;;;11.40;8.80;;;;;;;;4995003;28;45297;-72
2022/08/28 11:56:45;;;;;;;;;11.00;8.00;;;;;;;;4990529;27;45570;-73
2022/08/28 11:59:10;;;;;;;;;7.20;7.20;;;;;;;;4996077;28;45591;-73
2022/08/28 12:01:36;;;;;;;;;10.00;7.00;;;;;;;;4987030;28;45237;-73
2022/08/28 12:04:12;;;;;;;;;12.25;11.75;;;;;;;;4995095;28;45268;-73
2022/08/28 12:06:48;;;;;;;;;8.00;6.50;;;;;;;;4989988;27;45574;-73
2022/08/28 12:09:33;;;;;;;;;7.40;7.40;;;;;;;;4996388;28;46526;-72
2022/08/28 12:12:00;;;;;;;;;9.20;8.40;;;;;;;;4987781;28;45296;-72
2022/08/28 12:14:26;;;;;;;;;7.00;6.80;;;;;;;;4996515;27;45406;-73
2022/08/28 12:16:57;;;;;;;;;9.75;6.75;;;;;;;;4986493;27;46343;-73
2022/08/28 12:19:27;;;;;;;;;6.80;6.80;;;;;;;;4994648;28;45268;-72
2022/08/28 12:21:53;;;;;;;;;7.60;6.60;;;;;;;;4987658;28;45354;-73
2022/08/28 12:24:20;;;;;;;;;10.00;7.20;;;;;;;;4996904;27;45447;-72
2022/08/28 12:26:48;;;;;;;;;6.40;6.40;;;;;;;;4988421;28;45394;-73
2022/08/28 12:29:16;;;;;;;;;6.20;6.20;;;;;;;;4995779;28;47309;-74
2022/08/28 12:34:55;;;;;;;;;9.00;9.00;;;;;;;;5007484;27;45312;-74
2022/08/28 12:37:31;;;;;;;;;5.40;5.40;;;;;;;;4981214;28;45391;-73
2022/08/28 12:40:01;;;;;;;;;8.40;8.00;;;;;;;;4993651;28;46639;-71
2022/08/28 12:42:31;;;;;;;;;9.00;7.40;;;;;;;;5005175;28;45879;-73
2022/08/28 12:45:07;;;;;;;;;6.20;6.20;;;;;;;;4979200;27;45509;-73
2022/08/28 12:47:33;;;;;;;;;6.20;4.20;;;;;;;;4992248;27;46806;-77
2022/08/28 12:50:15;;;;;;;;;8.20;8.20;;;;;;;;4992812;27;45563;-73
2022/08/28 12:52:46;;;;;;;;;6.00;6.00;;;;;;;;4985228;28;45476;-72
2022/08/28 12:55:12;;;;;;;;;10.20;5.80;;;;;;;;4993147;27;45251;-73
2022/08/28 12:57:42;;;;;;;;;7.75;6.75;;;;;;;;4992546;28;45200;-73
2022/08/28 13:00:08;;;;;;;;;6.20;5.60;;;;;;;;4992983;28;45464;-71
2022/08/28 13:02:34;;;;;;;;;6.60;5.40;;;;;;;;4990572;27;45437;-72
2022/08/28 13:05:00;;;;;;;;;7.25;6.75;;;;;;;;4994334;28;45292;-73
2022/08/28 13:07:58;;;;;;;;;9.00;8.20;;;;;;;;4983148;28;45250;-74
2022/08/28 13:10:25;;;;;;;;;5.40;5.40;;;;;;;;4956158;28;45429;-73
2022/08/28 13:12:59;;;;;;;;;4.00;3.20;;;;;;;;4992141;28;45465;-74
2022/08/28 13:15:41;;;;;;;;;6.00;6.00;;;;;;;;4991186;28;45406;-73
2022/08/28 13:18:07;;;;;;;;;5.60;5.60;;;;;;;;4987237;27;45626;-73
2022/08/28 13:20:33;;;;;;;;;3.00;1.20;;;;;;;;4989351;28;45245;-73
2022/08/28 13:22:59;;;;;;;;;8.40;7.80;;;;;;;;4994120;27;45641;-73
2022/08/28 13:25:27;;;;;;;;;7.00;5.80;;;;;;;;4976314;27;45414;-72
2022/08/28 13:28:11;;;;;;;;;4.80;4.80;;;;;;;;4982568;27;45573;-73
2022/08/28 13:30:37;;;;;;;;;6.60;5.00;;;;;;;;4983480;27;47271;-74
2022/08/28 13:33:17;;;;;;;;;9.00;7.00;;;;;;;;4987362;27;45297;-72
2022/08/28 13:35:42;;;;;;;;;6.60;6.60;;;;;;;;5012250;27;45413;-73
2022/08/28 13:38:09;;;;;;;;;5.75;5.75;;;;;;;;4987380;28;45654;-73
2022/08/28 13:40:43;;;;;;;;;9.00;7.60;;;;;;;;4989581;27;46137;-73
2022/08/28 13:43:09;;;;;;;;;6.00;5.60;;;;;;;;4985078;27;45297;-73
2022/08/28 13:45:35;;;;;;;;;8.75;7.75;;;;;;;;4984685;27;45296;-74
2022/08/28 13:48:01;;;;;;;;;7.60;7.60;;;;;;;;4985950;28;45489;-74
2022/08/28 13:50:26;;;;;;;;;6.25;5.75;;;;;;;;4990408;27;46024;-73
2022/08/28 13:52:52;;;;;;;;;4.25;4.25;;;;;;;;4991426;27;45375;-74
2022/08/28 13:55:17;;;;;;;;;6.25;6.25;;;;;;;;4994227;27;45382;-72
2022/08/28 13:57:42;;;;;;;;;6.50;6.25;;;;;;;;4982978;27;45285;-73
2022/08/28 14:00:08;;;;;;;;;7.50;7.50;;;;;;;;4982051;27;46473;-73
2022/08/28 14:05:18;;;;;;;;;5.00;5.00;;;;;;;;4994072;27;45239;-73
2022/08/28 14:07:43;;;;;;;;;5.00;4.60;;;;;;;;4980299;27;45404;-74
2022/08/28 14:10:08;;;;;;;;;7.00;5.75;;;;;;;;4986110;27;45985;-73
2022/08/28 14:12:34;;;;;;;;;6.25;6.25;;;;;;;;4980300;28;45398;-73
2022/08/28 14:15:00;;;;;;;;;6.50;5.25;;;;;;;;4979542;27;45506;-73
2022/08/28 14:17:25;;;;;;;;;5.00;5.00;;;;;;;;4980481;27;45410;-74
2022/08/28 14:19:50;;;;;;;;;7.25;7.25;;;;;;;;4991221;27;45672;-74
2022/08/28 14:22:16;;;;;;;;;4.25;4.00;;;;;;;;4984451;27;45281;-74
2022/08/28 14:24:41;;;;;;;;;5.50;5.50;;;;;;;;4982421;28;45457;-75
2022/08/28 14:27:07;;;;;;;;;9.75;6.75;;;;;;;;4985559;27;45334;-73
2022/08/28 14:29:32;;;;;;;;;9.00;7.00;;;;;;;;4986985;28;46348;-73
2022/08/28 14:32:00;;;;;;;;;5.75;5.50;;;;;;;;4985674;27;45334;-73
2022/08/28 14:34:26;;;;;;;;;4.60;3.60;;;;;;;;5023555;27;45396;-73
2022/08/28 14:36:54;;;;;;;;;7.75;6.00;;;;;;;;4988688;27;45342;-74
2022/08/28 14:39:20;;;;;;;;;7.00;6.00;;;;;;;;4994318;27;47299;-73
2022/08/28 14:41:45;;;;;;;;;5.25;5.25;;;;;;;;4986890;27;45471;-73
2022/08/28 14:44:11;;;;;;;;;5.25;5.25;;;;;;;;4988500;27;45386;-73
2022/08/28 14:46:36;;;;;;;;;4.75;4.75;;;;;;;;4983487;27;45466;-73
2022/08/28 14:49:06;;;;;;;;;9.75;8.00;;;;;;;;4994040;27;45383;-73
2022/08/28 14:51:32;;;;;;;;;6.60;6.20;;;;;;;;4983393;27;45397;-73
2022/08/28 14:53:58;;;;;;;;;5.60;5.40;;;;;;;;4991869;27;45301;-73
2022/08/28 14:56:24;;;;;;;;;5.60;5.00;;;;;;;;4986131;27;45533;-73